Time;durP1;ratioP1;P1;durP2;ratioP2;P2;SDS_P1;SDS_P2;PMS_P1;PMS_P2;Temp;Humidity;BMP_temperature;BMP_pressure;BME280_temperature;BME280_humidity;BME280_pressure;Samples;Min_cycle;Max_cycle;Signal;HPM_P1;HPM_P2
2024/01/19 00:00:49;;;;;;;85.00;37.40;;;8.60;99.90;;;;;;6155886;23;20003;-75
2024/01/19 00:03:15;;;;;;;73.67;33.70;;;8.60;99.90;;;;;;6156001;23;20006;-76
2024/01/19 00:05:41;;;;;;;81.40;36.03;;;8.60;99.90;;;;;;6156355;23;20029;-75
2024/01/19 00:08:07;;;;;;;77.87;35.40;;;8.60;99.90;;;;;;6156651;23;20060;-76
2024/01/19 00:10:33;;;;;;;75.70;35.50;;;8.60;99.90;;;;;;6155757;23;20021;-76
2024/01/19 00:12:59;;;;;;;82.13;37.13;;;8.60;99.90;;;;;;6155738;23;20014;-75
2024/01/19 00:15:25;;;;;;;82.30;36.13;;;8.60;99.90;;;;;;6156168;23;20013;-75
2024/01/19 00:17:51;;;;;;;77.23;35.30;;;8.60;99.90;;;;;;6179228;23;20005;-76
2024/01/19 00:20:17;;;;;;;71.07;34.23;;;8.60;99.90;;;;;;6129904;23;20388;-74
2024/01/19 00:22:43;;;;;;;73.00;34.37;;;8.60;99.90;;;;;;6156880;23;20060;-75
2024/01/19 00:25:09;;;;;;;79.57;37.03;;;8.60;99.90;;;;;;6157244;23;20009;-75
2024/01/19 00:27:35;;;;;;;69.43;33.87;;;8.60;99.90;;;;;;6157370;23;20006;-75
2024/01/19 00:30:01;;;;;;;77.67;34.70;;;8.60;99.90;;;;;;6156898;23;20060;-76
2024/01/19 00:39:41;;;;;;;82.23;37.23;;;8.60;99.90;;;;;;6124500;23;20009;-76
2024/01/19 00:43:01;;;;;;;79.00;37.93;;;8.60;99.90;;;;;;6066485;23;20345;-74
2024/01/19 00:53:20;;;;;;;64.70;33.33;;;8.60;99.90;;;;;;5980823;24;20109;-75
2024/01/19 00:55:57;;;;;;;66.33;33.60;;;8.60;99.90;;;;;;5980472;23;20020;-76
2024/01/19 00:58:23;;;;;;;63.10;32.27;;;8.60;99.90;;;;;;6036616;23;20003;-76
2024/01/19 01:00:48;;;;;;;58.43;31.77;;;8.60;99.90;;;;;;6151573;23;20009;-76
2024/01/19 01:03:24;;;;;;;60.40;32.33;;;8.60;99.90;;;;;;6155942;23;20059;-76
2024/01/19 01:05:56;;;;;;;61.17;32.37;;;8.60;99.90;;;;;;6155729;23;20005;-75
2024/01/19 01:08:23;;;;;;;57.63;32.00;;;8.60;99.90;;;;;;6155450;23;19997;-75
2024/01/19 01:10:49;;;;;;;62.70;31.50;;;8.60;99.90;;;;;;6155794;23;20096;-76
2024/01/19 01:13:15;;;;;;;61.23;32.73;;;8.60;99.90;;;;;;6155152;23;20044;-75
2024/01/19 01:15:41;;;;;;;57.97;32.20;;;8.60;99.90;;;;;;6129526;23;20080;-75
2024/01/19 01:18:07;;;;;;;64.73;33.13;;;8.60;99.90;;;;;;6155365;23;20029;-76
2024/01/19 01:20:32;;;;;;;56.03;30.20;;;8.60;99.90;;;;;;6155969;23;20009;-74
2024/01/19 01:22:58;;;;;;;53.83;30.33;;;8.60;99.90;;;;;;6155410;23;20009;-72
2024/01/19 01:25:24;;;;;;;58.70;30.90;;;8.60;99.90;;;;;;6155578;23;19997;-75
2024/01/19 01:27:50;;;;;;;55.10;31.00;;;8.60;99.90;;;;;;6155675;23;20058;-76
2024/01/19 01:30:15;;;;;;;56.40;31.17;;;8.60;99.90;;;;;;6155425;23;20008;-74
2024/01/19 01:32:41;;;;;;;63.53;32.37;;;8.60;99.90;;;;;;6156098;23;20024;-75
2024/01/19 01:35:07;;;;;;;61.33;32.47;;;8.60;99.90;;;;;;6157155;23;20025;-75
2024/01/19 01:37:33;;;;;;;58.67;30.87;;;8.60;99.90;;;;;;6155847;23;20028;-65
2024/01/19 01:39:59;;;;;;;65.13;34.60;;;8.60;99.90;;;;;;6155513;23;20001;-64
2024/01/19 01:42:24;;;;;;;62.80;33.93;;;8.60;99.90;;;;;;6155427;23;20005;-65
2024/01/19 01:44:50;;;;;;;59.77;32.07;;;8.60;99.90;;;;;;6155425;23;20007;-64
2024/01/19 01:47:16;;;;;;;59.87;32.43;;;8.60;99.90;;;;;;6155320;23;20053;-65
2024/01/19 01:49:42;;;;;;;58.67;31.27;;;8.60;99.90;;;;;;6155613;23;20063;-65
2024/01/19 01:52:09;;;;;;;59.60;32.87;;;8.60;99.90;;;;;;6155290;23;20009;-64
2024/01/19 01:54:35;;;;;;;65.23;32.53;;;8.60;99.90;;;;;;6154985;23;20001;-66
2024/01/19 01:57:02;;;;;;;63.37;34.23;;;8.60;99.90;;;;;;6155706;23;20002;-76
2024/01/19 01:59:29;;;;;;;61.53;31.03;;;8.60;99.90;;;;;;6152199;23;20060;-75
2024/01/19 02:01:56;;;;;;;60.43;32.77;;;8.70;99.90;;;;;;6152321;23;20005;-76
2024/01/19 02:04:24;;;;;;;64.90;33.80;;;8.60;99.90;;;;;;6153456;23;20005;-75
2024/01/19 02:06:50;;;;;;;52.67;30.03;;;8.70;99.90;;;;;;6155664;23;20009;-75
2024/01/19 02:13:30;;;;;;;53.83;30.83;;;8.70;99.90;;;;;;6065196;23;20027;-75
2024/01/19 02:19:58;;;;;;;59.97;31.13;;;8.60;99.90;;;;;;5951513;24;20451;-75
2024/01/19 02:23:13;;;;;;;60.27;31.40;;;8.60;99.90;;;;;;5951944;24;20009;-76
2024/01/19 02:32:28;;;;;;;54.07;29.83;;;8.60;99.90;;;;;;5933261;23;20394;-78
2024/01/19 02:34:54;;;;;;;53.17;27.85;;;8.60;99.90;;;;;;6008138;23;20012;-75
2024/01/19 02:37:23;;;;;;;50.00;28.13;;;8.60;99.90;;;;;;6123700;23;20380;-77
2024/01/19 02:39:49;;;;;;;49.63;30.03;;;8.60;99.90;;;;;;6155270;23;20012;-78
2024/01/19 02:42:15;;;;;;;55.70;30.27;;;8.60;99.90;;;;;;6128521;23;20392;-75
2024/01/19 02:44:41;;;;;;;51.63;28.80;;;8.60;99.90;;;;;;6155328;23;20013;-75
2024/01/19 02:47:07;;;;;;;55.93;30.83;;;8.60;99.90;;;;;;6155024;23;20084;-75
2024/01/19 02:49:33;;;;;;;46.67;26.77;;;8.60;99.90;;;;;;6155222;23;20460;-76
2024/01/19 02:51:58;;;;;;;51.20;28.90;;;8.60;99.90;;;;;;6154849;23;20006;-76
2024/01/19 02:54:24;;;;;;;47.43;27.60;;;8.60;99.90;;;;;;6155136;23;20072;-76
2024/01/19 02:56:50;;;;;;;46.53;28.07;;;8.60;99.90;;;;;;6154714;23;20001;-75
2024/01/19 02:59:16;;;;;;;48.90;27.37;;;8.60;99.90;;;;;;6154737;23;20036;-76
2024/01/19 03:01:42;;;;;;;45.33;27.37;;;8.60;99.90;;;;;;6154704;23;20002;-75
2024/01/19 03:04:08;;;;;;;54.67;30.80;;;8.60;99.90;;;;;;6156453;23;20003;-73
2024/01/19 03:06:33;;;;;;;53.27;31.33;;;8.60;99.90;;;;;;6156580;23;20443;-76
2024/01/19 03:08:59;;;;;;;55.03;31.10;;;8.60;99.90;;;;;;6156619;23;20001;-76
2024/01/19 03:11:25;;;;;;;53.40;31.30;;;8.60;99.90;;;;;;6156570;23;20017;-74
2024/01/19 03:13:53;;;;;;;59.57;32.60;;;8.60;99.90;;;;;;6157076;23;20025;-76
2024/01/19 03:16:19;;;;;;;63.43;33.23;;;8.60;99.90;;;;;;6157008;23;20060;-76
2024/01/19 03:18:45;;;;;;;73.80;37.40;;;8.50;99.90;;;;;;6156709;23;20010;-75
2024/01/19 03:21:12;;;;;;;82.40;37.87;;;8.50;99.90;;;;;;6156581;23;20005;-76
2024/01/19 03:23:38;;;;;;;74.20;35.80;;;8.50;99.90;;;;;;6156838;23;20072;-75
2024/01/19 03:26:04;;;;;;;74.83;37.47;;;8.50;99.90;;;;;;6156847;23;19998;-73
2024/01/19 03:28:31;;;;;;;69.67;35.37;;;8.50;99.90;;;;;;6156777;23;20001;-75
2024/01/19 03:30:56;;;;;;;67.93;35.60;;;8.50;99.90;;;;;;6156810;23;20440;-76
2024/01/19 03:33:22;;;;;;;68.93;34.87;;;8.50;99.90;;;;;;6156327;23;20048;-70
2024/01/19 03:35:48;;;;;;;64.43;34.67;;;8.50;99.90;;;;;;6157192;23;20491;-76
2024/01/19 03:38:14;;;;;;;65.73;34.50;;;8.50;99.90;;;;;;6157503;23;20012;-76
2024/01/19 03:40:40;;;;;;;66.70;34.63;;;8.60;99.90;;;;;;6157255;23;20002;-73
2024/01/19 03:43:05;;;;;;;73.83;36.17;;;8.60;99.90;;;;;;6157492;23;20001;-74
2024/01/19 03:45:32;;;;;;;68.80;33.23;;;8.60;99.90;;;;;;6157285;23;20009;-74
2024/01/19 03:51:24;;;;;;;64.73;33.37;;;8.60;99.90;;;;;;6095020;23;20018;-76
2024/01/19 04:00:28;;;;;;;;;;;8.60;99.90;;;;;;6045804;23;20007;-76
2024/01/19 04:07:12;;;;;;;53.25;29.05;;;8.60;99.90;;;;;;5938458;24;20048;-77
2024/01/19 04:10:03;;;;;;;52.63;29.70;;;8.60;99.90;;;;;;5870471;24;20018;-76
2024/01/19 04:12:29;;;;;;;55.37;29.83;;;8.60;99.90;;;;;;5988712;23;20020;-78
2024/01/19 04:14:55;;;;;;;53.43;30.37;;;8.60;99.90;;;;;;6111151;23;20325;-73
2024/01/19 04:17:21;;;;;;;47.77;28.80;;;8.60;99.90;;;;;;6155653;23;20005;-76
2024/01/19 04:19:47;;;;;;;52.93;30.23;;;8.60;99.90;;;;;;6155366;23;20002;-75
2024/01/19 04:22:13;;;;;;;52.53;29.93;;;8.60;99.90;;;;;;6154897;23;20001;-76
2024/01/19 04:24:38;;;;;;;48.50;28.30;;;8.60;99.90;;;;;;6155425;23;20321;-74
2024/01/19 04:27:04;;;;;;;54.13;30.80;;;8.70;99.90;;;;;;6155748;23;20008;-76
2024/01/19 04:29:30;;;;;;;49.53;29.37;;;8.60;99.90;;;;;;6155630;23;20029;-76
2024/01/19 04:31:56;;;;;;;50.00;29.37;;;8.70;99.90;;;;;;6155525;23;20002;-76
2024/01/19 04:34:22;;;;;;;47.93;28.60;;;8.80;99.90;;;;;;6156431;23;20005;-76
2024/01/19 04:36:47;;;;;;;50.90;30.00;;;8.80;99.90;;;;;;6156246;23;20001;-78
2024/01/19 04:39:13;;;;;;;53.23;29.87;;;8.80;99.90;;;;;;6156274;23;20005;-78
2024/01/19 04:41:39;;;;;;;52.03;29.53;;;8.80;99.90;;;;;;6155906;23;19998;-79
2024/01/19 04:44:06;;;;;;;51.77;29.30;;;8.80;99.90;;;;;;6156027;23;20002;-77
2024/01/19 04:46:32;;;;;;;56.00;31.90;;;8.80;99.90;;;;;;6156120;23;20048;-78
2024/01/19 04:48:57;;;;;;;58.40;31.60;;;8.70;99.90;;;;;;6156014;23;20002;-77
2024/01/19 04:51:23;;;;;;;58.93;31.77;;;8.70;99.90;;;;;;6156592;23;20010;-66
2024/01/19 04:53:49;;;;;;;53.57;30.03;;;8.70;99.90;;;;;;6155616;23;20049;-64
2024/01/19 04:56:14;;;;;;;49.30;28.93;;;8.70;99.90;;;;;;6155814;23;20005;-66
2024/01/19 04:58:40;;;;;;;52.80;30.43;;;8.80;99.90;;;;;;6155646;23;20001;-64
2024/01/19 05:01:06;;;;;;;54.43;30.60;;;8.70;99.90;;;;;;6155449;23;20002;-64
2024/01/19 05:03:32;;;;;;;51.53;30.23;;;8.70;99.90;;;;;;6155789;23;20005;-64
2024/01/19 05:05:58;;;;;;;58.17;30.90;;;8.70;99.90;;;;;;6155792;23;19998;-64
2024/01/19 05:08:24;;;;;;;60.40;30.47;;;8.80;99.90;;;;;;6155197;23;20082;-65
2024/01/19 05:10:50;;;;;;;51.53;29.73;;;8.70;99.90;;;;;;6155591;23;20406;-65
2024/01/19 05:13:15;;;;;;;52.40;30.13;;;8.70;99.90;;;;;;6156521;23;20405;-77
2024/01/19 05:15:44;;;;;;;46.93;26.90;;;8.70;99.90;;;;;;6156610;23;20011;-76
2024/01/19 05:18:10;;;;;;;47.17;26.77;;;8.70;99.90;;;;;;6156322;23;20006;-78
2024/01/19 05:20:38;;;;;;;46.03;25.93;;;8.70;99.90;;;;;;6156097;23;20467;-79
2024/01/19 05:23:05;;;;;;;41.23;24.87;;;8.70;99.90;;;;;;6156382;23;20011;-77
2024/01/19 05:26:43;;;;;;;45.20;25.50;;;8.70;99.90;;;;;;6179279;23;20005;-79
2024/01/19 05:36:40;;;;;;;;;;;;;;;;;;;;;
2024/01/19 05:46:57;;;;;;;40.10;23.87;;;8.70;99.90;;;;;;6008197;23;20016;-76
2024/01/19 05:49:18;;;;;;;42.00;25.30;;;8.70;99.90;;;;;;6027000;23;20011;-73
2024/01/19 05:51:44;;;;;;;42.23;25.37;;;8.70;99.90;;;;;;6065591;23;20563;-74
2024/01/19 05:54:11;;;;;;;40.43;23.97;;;8.70;99.90;;;;;;6120618;23;20340;-76
2024/01/19 05:56:37;;;;;;;39.27;25.53;;;8.70;99.90;;;;;;6155448;23;19998;-76
2024/01/19 05:59:03;;;;;;;39.60;25.30;;;8.70;99.90;;;;;;6155347;23;20378;-77
2024/01/19 06:01:29;;;;;;;44.37;25.33;;;8.80;99.90;;;;;;6155106;23;20005;-76
2024/01/19 06:03:54;;;;;;;44.93;25.43;;;8.80;99.90;;;;;;6170063;23;20013;-75
2024/01/19 06:06:20;;;;;;;42.47;25.83;;;8.80;99.90;;;;;;6184944;23;19997;-71
2024/01/19 06:08:46;;;;;;;45.43;25.97;;;8.80;99.90;;;;;;6185253;23;20005;-75
2024/01/19 06:11:11;;;;;;;39.93;25.13;;;8.80;99.90;;;;;;6184843;23;20002;-75
2024/01/19 06:13:40;;;;;;;42.57;25.30;;;8.80;99.90;;;;;;6184974;23;20095;-79
2024/01/19 06:16:06;;;;;;;41.33;25.20;;;8.70;99.90;;;;;;6185263;23;20322;-79
2024/01/19 06:18:33;;;;;;;41.60;24.77;;;8.70;99.90;;;;;;6185255;23;20087;-77
2024/01/19 06:21:00;;;;;;;45.37;26.27;;;8.70;99.90;;;;;;6185107;23;19998;-75
2024/01/19 06:23:26;;;;;;;38.20;23.13;;;8.80;99.90;;;;;;6185011;23;20454;-79
2024/01/19 06:25:52;;;;;;;38.33;24.20;;;8.70;99.90;;;;;;6186278;23;19997;-65
2024/01/19 06:28:18;;;;;;;48.80;29.20;;;8.70;99.90;;;;;;6184334;23;20036;-65
2024/01/19 06:30:45;;;;;;;52.90;30.50;;;8.70;99.90;;;;;;6158266;23;20005;-68
2024/01/19 06:33:11;;;;;;;32.40;17.87;;;8.70;99.90;;;;;;6184439;23;20157;-66
2024/01/19 06:35:37;;;;;;;19.27;11.23;;;8.80;99.90;;;;;;6184422;23;20009;-66
2024/01/19 06:38:06;;;;;;;6.20;3.30;;;8.80;99.90;;;;;;6183253;23;20057;-66
2024/01/19 06:40:32;;;;;;;3.00;0.73;;;8.90;99.90;;;;;;6182962;23;19997;-65
2024/01/19 06:42:58;;;;;;;2.77;0.63;;;8.90;99.90;;;;;;6184316;23;20039;-67
2024/01/19 06:45:24;;;;;;;1.03;0.43;;;8.80;99.90;;;;;;6185183;23;20487;-79
2024/01/19 06:47:50;;;;;;;6.00;0.40;;;8.70;99.90;;;;;;6185129;23;20005;-76
2024/01/19 06:50:16;;;;;;;1.40;0.60;;;8.60;99.90;;;;;;6184994;23;20048;-78
2024/01/19 06:52:42;;;;;;;3.13;0.50;;;8.40;99.90;;;;;;6185701;23;20288;-77
2024/01/19 06:55:08;;;;;;;1.10;0.50;;;8.30;99.90;;;;;;6185190;23;20028;-75
2024/01/19 07:05:17;;;;;;;0.20;0.13;;;7.90;99.90;;;;;;6122149;23;20022;-76
2024/01/19 07:21:15;;;;;;;0.73;0.40;;;;;;;;;;5979314;24;20018;-69
2024/01/19 07:23:42;;;;;;;2.33;0.40;;;;;;;;;;6122510;23;20014;-74
2024/01/19 07:26:08;;;;;;;0.93;0.30;;;;;;;;;;6167919;23;20320;-75
2024/01/19 07:28:34;;;;;;;1.17;0.23;;;;;;;;;;6183513;23;20309;-74
2024/01/19 07:31:00;;;;;;;0.97;0.47;;;7.10;99.90;;;;;;6184680;23;20328;-75
2024/01/19 07:33:26;;;;;;;1.13;0.37;;;6.70;99.90;;;;;;6184700;23;20009;-74
2024/01/19 07:35:52;;;;;;;0.67;0.30;;;6.70;99.90;;;;;;6184611;23;20124;-75
2024/01/19 07:38:19;;;;;;;1.23;0.40;;;6.60;99.90;;;;;;6184757;23;20028;-75
2024/01/19 07:40:45;;;;;;;0.97;0.30;;;6.60;99.90;;;;;;6184421;23;20420;-74
2024/01/19 07:43:11;;;;;;;0.53;0.33;;;6.60;99.90;;;;;;6183637;23;20039;-74
2024/01/19 07:45:37;;;;;;;0.60;0.23;;;6.60;99.90;;;;;;6183215;23;20055;-75
2024/01/19 07:48:03;;;;;;;1.70;0.40;;;6.60;99.90;;;;;;6184813;23;20013;-75
2024/01/19 07:50:28;;;;;;;0.30;0.20;;;6.60;99.90;;;;;;6186201;23;20012;-74
2024/01/19 07:52:54;;;;;;;0.50;0.30;;;6.70;99.90;;;;;;6186635;23;20080;-74
2024/01/19 07:55:20;;;;;;;0.40;0.30;;;6.60;99.90;;;;;;6187195;23;19997;-75
2024/01/19 07:57:46;;;;;;;1.47;0.40;;;6.60;99.90;;;;;;6186595;23;20008;-75
2024/01/19 08:00:12;;;;;;;0.53;0.40;;;6.60;99.90;;;;;;6186753;23;20038;-73
2024/01/19 08:02:40;;;;;;;0.73;0.30;;;6.50;99.90;;;;;;6186293;23;20005;-70
2024/01/19 08:05:06;;;;;;;0.90;0.50;;;6.50;99.90;;;;;;6184789;23;20091;-74
2024/01/19 08:07:32;;;;;;;0.87;0.30;;;;;;;;;;6183024;23;20032;-72
2024/01/19 08:09:58;;;;;;;0.30;0.20;;;;;;;;;;6182630;23;20005;-75
2024/01/19 08:12:24;;;;;;;0.50;0.30;;;;;;;;;;6158506;23;20009;-72
2024/01/19 08:14:52;;;;;;;2.73;0.50;;;;;;;;;;6186076;23;20431;-75
2024/01/19 08:17:17;;;;;;;0.93;0.47;;;6.40;99.90;;;;;;6186395;23;20005;-73
2024/01/19 08:19:43;;;;;;;0.50;0.37;;;6.10;99.90;;;;;;6185777;23;20374;-73
2024/01/19 08:22:09;;;;;;;0.60;0.40;;;;;;;;;;6186371;23;19993;-75
2024/01/19 08:24:38;;;;;;;0.40;0.20;;;6.00;99.90;;;;;;6186650;23;20009;-74
2024/01/19 08:27:04;;;;;;;0.80;0.20;;;5.90;99.90;;;;;;6184396;23;20005;-74
2024/01/19 08:29:32;;;;;;;0.50;0.20;;;5.80;99.90;;;;;;6182974;23;20015;-74
2024/01/19 08:31:59;;;;;;;0.93;0.30;;;;;;;;;;6182357;23;20005;-70
2024/01/19 08:34:25;;;;;;;0.27;0.20;;;5.70;99.90;;;;;;6185160;23;20331;-73
2024/01/19 08:36:53;;;;;;;0.73;0.23;;;5.70;99.90;;;;;;6184947;23;20301;-74
2024/01/19 08:39:31;;;;;;;1.43;0.70;;;5.70;99.90;;;;;;6185403;23;20388;-75
2024/01/19 08:42:19;;;;;;;0.87;0.40;;;5.70;99.90;;;;;;6184990;23;19997;-72
2024/01/19 08:44:48;;;;;;;0.30;0.30;;;5.60;99.90;;;;;;6184878;23;20383;-74
2024/01/19 08:47:24;;;;;;;0.53;0.20;;;;;;;;;;6185654;23;20396;-74
2024/01/19 08:50:14;;;;;;;0.73;0.50;;;;;;;;;;6185676;23;20025;-74
2024/01/19 08:53:07;;;;;;;2.17;0.23;;;;;;;;;;6185402;23;20330;-74
2024/01/19 08:55:39;;;;;;;2.42;0.40;;;5.60;99.90;;;;;;6180030;23;20001;-74
2024/01/19 08:58:05;;;;;;;2.00;0.20;;;5.50;99.90;;;;;;6185445;23;20005;-75
2024/01/19 09:00:31;;;;;;;0.73;0.37;;;5.50;99.90;;;;;;6184872;23;20527;-75
2024/01/19 09:02:57;;;;;;;0.50;0.37;;;5.40;99.90;;;;;;6160987;23;20067;-74
2024/01/19 09:05:23;;;;;;;0.97;0.50;;;5.40;99.90;;;;;;6177221;23;20013;-65
2024/01/19 09:07:48;;;;;;;0.70;0.47;;;5.40;99.90;;;;;;6185246;23;20005;-70
2024/01/19 09:10:14;;;;;;;0.57;0.20;;;5.40;99.90;;;;;;6185318;23;20454;-74
2024/01/19 09:12:40;;;;;;;0.43;0.20;;;5.40;99.90;;;;;;6184592;23;20058;-71
2024/01/19 09:15:06;;;;;;;0.77;0.40;;;5.40;99.90;;;;;;6184785;23;20008;-75
2024/01/19 09:17:32;;;;;;;0.70;0.30;;;5.40;99.90;;;;;;6185178;23;20055;-75
2024/01/19 09:19:58;;;;;;;2.00;0.80;;;5.40;99.90;;;;;;6185043;23;20001;-65
2024/01/19 09:22:24;;;;;;;0.97;0.57;;;5.50;99.90;;;;;;6184740;23;20376;-74
2024/01/19 09:24:50;;;;;;;0.80;0.40;;;5.50;99.90;;;;;;6184738;23;19998;-75
2024/01/19 09:27:15;;;;;;;0.80;0.43;;;5.60;99.90;;;;;;6184721;23;20075;-74
2024/01/19 09:29:41;;;;;;;0.60;0.30;;;5.50;99.90;;;;;;6184118;23;20005;-74
2024/01/19 09:32:07;;;;;;;0.57;0.30;;;5.50;99.90;;;;;;6183993;23;20008;-72
2024/01/19 09:34:32;;;;;;;0.63;0.50;;;5.50;99.90;;;;;;6184906;23;20005;-66
2024/01/19 09:36:58;;;;;;;0.83;0.40;;;5.50;99.90;;;;;;6157927;23;20005;-65
2024/01/19 09:39:24;;;;;;;0.53;0.40;;;5.50;99.90;;;;;;6184300;23;19997;-65
2024/01/19 09:41:52;;;;;;;1.07;0.50;;;5.50;99.90;;;;;;6184003;23;20005;-65
2024/01/19 09:44:20;;;;;;;0.70;0.40;;;5.50;99.90;;;;;;6181651;23;20016;-67
2024/01/19 09:46:51;;;;;;;1.20;0.70;;;5.50;99.90;;;;;;6181920;23;20104;-66
2024/01/19 09:49:26;;;;;;;0.70;0.40;;;5.50;99.90;;;;;;6184756;23;20012;-65
2024/01/19 09:52:02;;;;;;;3.60;0.80;;;5.40;99.90;;;;;;6185183;23;20412;-65
2024/01/19 09:54:32;;;;;;;1.07;0.67;;;5.40;99.90;;;;;;6186493;23;20347;-75
2024/01/19 09:57:02;;;;;;;0.40;0.20;;;5.40;99.90;;;;;;6186276;23;20102;-76
2024/01/19 09:59:32;;;;;;;0.70;0.43;;;5.40;99.90;;;;;;6186666;23;20331;-75
2024/01/19 10:01:59;;;;;;;1.07;0.40;;;5.30;99.90;;;;;;6186098;23;20021;-75
2024/01/19 10:04:31;;;;;;;0.83;0.30;;;5.30;99.90;;;;;;6186161;23;20013;-76
2024/01/19 10:24:09;;;;;;;0.60;0.60;;;5.20;99.90;;;;;;5955699;23;20009;-76
2024/01/19 10:26:39;;;;;;;;;;;5.10;99.90;;;;;;6036484;23;20438;-74
2024/01/19 10:29:14;;;;;;;0.77;0.30;;;5.10;99.90;;;;;;6035754;23;20366;-75
2024/01/19 10:31:42;;;;;;;0.43;0.10;;;5.10;99.90;;;;;;6036466;23;20320;-73
2024/01/19 10:34:19;;;;;;;0.43;0.30;;;5.10;99.90;;;;;;6041945;23;20015;-74
2024/01/19 10:36:46;;;;;;;1.57;0.53;;;5.10;99.90;;;;;;6184975;23;20001;-77
2024/01/19 10:39:31;;;;;;;1.87;1.00;;;5.10;99.90;;;;;;6184816;23;20391;-78
2024/01/19 10:42:07;;;;;;;0.97;0.33;;;5.10;99.90;;;;;;6184805;23;19997;-73
2024/01/19 10:44:34;;;;;;;1.20;0.70;;;5.10;99.90;;;;;;6184481;23;20005;-77
2024/01/19 10:47:00;;;;;;;0.40;0.37;;;5.00;99.90;;;;;;6158129;23;20340;-77
2024/01/19 10:49:26;;;;;;;0.40;0.40;;;5.00;99.90;;;;;;6184923;23;20355;-75
2024/01/19 10:51:54;;;;;;;1.40;0.30;;;5.00;99.90;;;;;;6185111;23;20052;-73
2024/01/19 10:54:25;;;;;;;0.53;0.23;;;5.00;99.90;;;;;;6184769;23;20390;-74
2024/01/19 10:57:04;;;;;;;0.57;0.30;;;5.00;99.90;;;;;;6185185;23;20008;-76
2024/01/19 10:59:29;;;;;;;1.70;0.30;;;5.00;99.90;;;;;;6185016;23;20005;-77
2024/01/19 11:02:00;;;;;;;0.40;0.30;;;5.00;99.90;;;;;;6184690;23;20096;-76
2024/01/19 11:04:26;;;;;;;0.10;0.10;;;5.10;99.90;;;;;;6184737;23;20021;-75
2024/01/19 11:06:53;;;;;;;0.80;0.33;;;5.10;99.90;;;;;;6184796;23;20412;-77
2024/01/19 11:09:18;;;;;;;0.30;0.20;;;5.10;99.90;;;;;;6184667;23;20029;-76
2024/01/19 11:11:53;;;;;;;0.77;0.40;;;5.10;99.90;;;;;;6185171;23;20005;-77
2024/01/19 11:14:23;;;;;;;0.90;0.43;;;5.10;99.90;;;;;;6184904;23;20009;-76
2024/01/19 11:16:52;;;;;;;1.10;0.40;;;5.10;99.90;;;;;;6184647;23;20005;-77
2024/01/19 11:19:20;;;;;;;1.00;0.40;;;5.10;99.90;;;;;;6184701;23;19997;-76
2024/01/19 11:21:46;;;;;;;0.67;0.40;;;5.00;99.90;;;;;;6184897;23;20013;-77
2024/01/19 11:24:16;;;;;;;1.23;0.40;;;5.00;99.90;;;;;;6185406;23;20308;-76
2024/01/19 11:27:06;;;;;;;0.87;0.50;;;5.00;99.90;;;;;;6186825;23;20005;-78
2024/01/19 11:29:38;;;;;;;1.00;0.40;;;5.10;99.90;;;;;;6187374;23;20013;-77
2024/01/19 11:32:04;;;;;;;0.70;0.50;;;5.10;99.90;;;;;;6187200;23;20027;-77
2024/01/19 11:34:47;;;;;;;0.53;0.30;;;5.10;99.90;;;;;;6187060;23;20009;-77
2024/01/19 11:37:44;;;;;;;0.75;0.47;;;5.00;99.90;;;;;;6161227;23;20401;-75
2024/01/19 11:55:02;;;;;;;1.90;0.70;;;5.00;99.90;;;;;;5898770;24;20033;-76
2024/01/19 12:01:06;;;;;;;2.23;0.87;;;5.10;99.90;;;;;;5898089;24;20110;-77
2024/01/19 12:03:34;;;;;;;0.50;0.30;;;5.10;99.90;;;;;;5875530;24;20049;-77
2024/01/19 12:06:01;;;;;;;0.40;0.30;;;5.00;99.90;;;;;;5906760;24;20033;-76
2024/01/19 12:08:28;;;;;;;0.80;0.50;;;5.10;99.90;;;;;;6105585;23;20071;-76
2024/01/19 12:11:14;;;;;;;0.97;0.40;;;5.10;99.90;;;;;;6186024;23;20319;-77
2024/01/19 12:13:41;;;;;;;0.57;0.40;;;5.10;99.90;;;;;;6157408;23;20406;-77
2024/01/19 12:16:07;;;;;;;0.60;0.30;;;5.20;99.90;;;;;;6156248;23;20317;-77
2024/01/19 12:18:35;;;;;;;1.77;0.50;;;5.10;99.90;;;;;;6184222;23;20032;-67
2024/01/19 12:21:01;;;;;;;1.27;0.53;;;5.10;99.90;;;;;;6185926;23;20001;-75
2024/01/19 12:23:29;;;;;;;1.47;0.40;;;5.10;99.90;;;;;;6185464;23;20041;-76
2024/01/19 12:25:58;;;;;;;4.13;0.40;;;5.10;99.90;;;;;;6185654;23;19997;-76
2024/01/19 12:28:25;;;;;;;0.67;0.53;;;5.10;99.90;;;;;;6186015;23;20020;-76
2024/01/19 12:30:55;;;;;;;0.93;0.50;;;5.10;99.90;;;;;;6186608;23;20080;-77
2024/01/19 12:33:28;;;;;;;1.60;0.30;;;5.10;99.90;;;;;;6186033;23;20028;-76
2024/01/19 12:36:08;;;;;;;0.50;0.33;;;5.10;99.90;;;;;;6185759;23;20479;-77
2024/01/19 12:38:34;;;;;;;0.57;0.20;;;5.20;99.90;;;;;;6183975;23;20009;-77
2024/01/19 12:41:03;;;;;;;1.17;0.47;;;5.10;99.90;;;;;;6183970;23;20431;-68
2024/01/19 12:43:33;;;;;;;0.90;0.50;;;5.10;99.90;;;;;;6183027;23;20009;-68
2024/01/19 12:46:07;;;;;;;1.57;0.90;;;5.10;99.90;;;;;;6185106;23;19997;-67
2024/01/19 12:48:34;;;;;;;2.40;2.03;;;5.10;99.90;;;;;;6186094;23;20331;-67
2024/01/19 12:51:07;;;;;;;1.10;0.50;;;5.20;99.90;;;;;;6186202;23;20476;-66
2024/01/19 12:53:34;;;;;;;0.60;0.40;;;5.20;99.90;;;;;;6185400;23;20020;-67
2024/01/19 12:56:22;;;;;;;0.60;0.40;;;5.20;99.90;;;;;;6185378;23;20005;-68
2024/01/19 12:58:48;;;;;;;0.70;0.40;;;5.20;99.90;;;;;;6186200;23;20001;-77
2024/01/19 13:01:17;;;;;;;0.30;0.30;;;5.20;99.90;;;;;;6186138;23;20011;-78
2024/01/19 13:03:43;;;;;;;1.77;0.60;;;5.10;99.90;;;;;;6186165;23;20017;-77
2024/01/19 13:06:08;;;;;;;1.40;0.50;;;5.20;99.90;;;;;;6186254;23;20376;-76
2024/01/19 13:08:34;;;;;;;1.43;0.60;;;5.20;99.90;;;;;;6184739;23;20005;-67
2024/01/19 13:11:32;;;;;;;1.60;1.07;;;5.20;99.90;;;;;;6183161;23;20336;-76
2024/01/19 13:29:30;;;;;;;0.50;0.40;;;5.30;99.90;;;;;;5891183;24;20017;-76
2024/01/19 13:32:50;;;;;;;0.83;0.40;;;5.40;98.40;;;;;;5896928;24;20040;-74
2024/01/19 13:35:16;;;;;;;1.13;0.57;;;5.40;97.70;;;;;;5867709;24;20092;-73
2024/01/19 13:37:43;;;;;;;1.03;0.63;;;5.30;99.10;;;;;;5996858;23;20099;-76
2024/01/19 13:40:11;;;;;;;1.20;0.50;;;5.40;99.20;;;;;;6013435;23;20346;-76
2024/01/19 13:42:40;;;;;;;0.90;0.50;;;5.50;95.70;;;;;;6185580;23;20073;-76
2024/01/19 13:45:09;;;;;;;0.60;0.30;;;5.50;94.40;;;;;;6185478;23;20392;-76
2024/01/19 13:47:36;;;;;;;1.17;0.60;;;5.40;92.50;;;;;;6181611;23;20335;-76
2024/01/19 13:50:03;;;;;;;1.37;0.80;;;5.40;93.40;;;;;;6182072;23;20016;-74
2024/01/19 13:52:29;;;;;;;0.93;0.60;;;5.40;93.20;;;;;;6183332;23;20001;-76
2024/01/19 13:54:55;;;;;;;0.70;0.40;;;5.30;93.80;;;;;;6185201;23;20005;-76
2024/01/19 13:57:21;;;;;;;0.67;0.40;;;5.30;91.40;;;;;;6185206;23;20079;-67
2024/01/19 13:59:47;;;;;;;0.87;0.53;;;5.30;93.40;;;;;;6184625;23;20005;-74
2024/01/19 14:02:15;;;;;;;1.43;0.50;;;5.30;90.70;;;;;;6184311;23;20005;-77
2024/01/19 14:04:41;;;;;;;0.97;0.43;;;5.30;92.40;;;;;;6184530;23;20013;-76
2024/01/19 14:07:08;;;;;;;1.17;0.40;;;5.20;91.10;;;;;;6184972;23;20031;-75
2024/01/19 14:09:40;;;;;;;0.77;0.40;;;5.20;87.60;;;;;;6184563;23;20051;-76
2024/01/19 14:12:07;;;;;;;0.80;0.35;;;5.20;90.20;;;;;;6184981;23;20442;-77
2024/01/19 14:14:33;;;;;;;0.93;0.50;;;5.20;90.30;;;;;;6185493;23;20017;-77
2024/01/19 14:16:59;;;;;;;0.80;0.53;;;5.20;90.90;;;;;;6184968;23;20084;-76
2024/01/19 14:19:25;;;;;;;1.17;0.50;;;5.20;89.20;;;;;;6184839;23;20055;-76
2024/01/19 14:21:51;;;;;;;0.90;0.60;;;5.30;88.90;;;;;;6184816;23;20039;-76
2024/01/19 14:24:16;;;;;;;1.33;0.50;;;5.30;86.50;;;;;;6184559;23;20001;-76
2024/01/19 14:26:42;;;;;;;1.03;0.60;;;5.30;85.30;;;;;;6185318;23;20004;-76
2024/01/19 14:29:10;;;;;;;1.40;0.47;;;5.30;85.80;;;;;;6182154;23;20490;-76
2024/01/19 14:31:39;;;;;;;2.77;0.57;;;5.30;87.40;;;;;;6181118;23;20001;-76
2024/01/19 14:34:05;;;;;;;1.20;0.50;;;5.20;89.80;;;;;;6181757;23;20017;-75
2024/01/19 14:36:31;;;;;;;0.50;0.40;;;5.20;89.50;;;;;;6183376;23;20078;-71
2024/01/19 14:38:57;;;;;;;0.70;0.40;;;5.20;89.70;;;;;;6185753;23;20004;-67
2024/01/19 14:41:23;;;;;;;0.60;0.40;;;5.20;84.30;;;;;;6185683;23;20008;-69
2024/01/19 14:43:52;;;;;;;2.40;0.40;;;5.20;85.50;;;;;;6185390;23;20379;-76
2024/01/19 14:47:11;;;;;;;1.23;0.60;;;5.20;83.40;;;;;;6185206;23;20056;-75
2024/01/19 15:00:26;;;;;;;0.77;0.40;;;5.20;83.90;;;;;;5981477;24;20023;-77
2024/01/19 15:02:52;;;;;;;1.40;0.60;;;5.20;86.70;;;;;;5958838;24;20125;-75
2024/01/19 15:06:14;;;;;;;1.40;0.73;;;5.10;90.00;;;;;;5982197;23;20020;-76
2024/01/19 15:08:40;;;;;;;0.90;0.47;;;5.10;90.40;;;;;;5940692;23;20038;-75
2024/01/19 15:11:06;;;;;;;1.77;0.60;;;5.20;83.80;;;;;;6037440;23;20346;-68
2024/01/19 15:13:32;;;;;;;0.90;0.40;;;5.20;82.30;;;;;;6116926;23;20068;-77
2024/01/19 15:15:57;;;;;;;2.03;0.60;;;5.20;81.50;;;;;;6185795;23;20083;-76
2024/01/19 15:18:23;;;;;;;1.10;0.50;;;5.20;81.80;;;;;;6186387;23;20001;-76
2024/01/19 15:20:49;;;;;;;1.30;0.43;;;5.30;81.30;;;;;;6185639;23;20001;-76
2024/01/19 15:23:15;;;;;;;0.70;0.30;;;5.30;80.60;;;;;;6186769;23;20012;-75